Oliverea, New York
Current Conditions -  °F | °C
As of 2:15 PM on Monday 22 Dec 2014 (Local Time) from KMSV Reporting Station
Overcast Overcast  
Wind Chill: 26°   Ceiling: 300
Heat Index: 32°   Visibility: 4mi
Dew Point: 32°   Wind: 7mph
Humidity: 100%   Direction: 90°E
Pressure: 30.19"   Gusts: NA
Location:  42.1356°N, 74.4393°W
Report Text: KMSV 221915Z AUTO 09006KT 4SM OVC003 00/00 A3019 RMK AO1
Loading
Personal Weather Stations






























Interactive Weather Map New forecast layout! Learn more

10-Day Weather Forecast

Advertisements
Track Severe Weather on mobile